Time;durP1;ratioP1;P1;durP2;ratioP2;P2;SDS_P1;SDS_P2;PMS_P1;PMS_P2;Temp;Humidity;BMP_temperature;BMP_pressure;BME280_temperature;BME280_humidity;BME280_pressure;Samples;Min_cycle;Max_cycle;Signal;HPM_P1;HPM_P2
2023/07/06 00:00:40;;;;;;;12.20;7.57;;;;;;;20.34;77.93;99821.38;5088006;28;20050;-40
2023/07/06 00:03:06;;;;;;;10.55;7.28;;;;;;;20.32;78.36;99823.28;5083577;28;20150;-40
2023/07/06 00:05:32;;;;;;;12.98;7.68;;;;;;;20.28;78.37;99822.63;5077475;28;20131;-40
2023/07/06 00:08:00;;;;;;;10.25;7.50;;;;;;;20.24;78.65;99815.91;5071923;28;20035;-40
2023/07/06 00:10:26;;;;;;;12.45;7.38;;;;;;;20.24;78.61;99814.09;5086207;28;20070;-40
2023/07/06 00:12:52;;;;;;;10.00;7.47;;;;;;;20.20;79.15;99817.88;5066487;28;20105;-40
2023/07/06 00:15:18;;;;;;;14.68;7.43;;;;;;;20.19;79.17;99824.16;5085687;28;20130;-40
2023/07/06 00:17:44;;;;;;;11.18;8.05;;;;;;;20.17;79.42;99819.91;5084935;28;20576;-40
2023/07/06 00:20:12;;;;;;;15.43;7.40;;;;;;;20.09;80.11;99811.72;5067175;28;20040;-40
2023/07/06 00:22:38;;;;;;;12.65;8.50;;;;;;;20.10;80.13;99819.50;5070022;28;20607;-41
2023/07/06 00:25:05;;;;;;;11.60;7.30;;;;;;;20.00;80.28;99796.50;5056821;28;20120;-41
2023/07/06 00:27:31;;;;;;;11.82;8.30;;;;;;;19.96;80.34;99801.19;5067168;28;20093;-40
2023/07/06 00:30:07;;;;;;;12.48;8.05;;;;;;;20.09;80.27;99830.19;5048206;28;20087;-41
2023/07/06 00:32:33;;;;;;;12.13;8.75;;;;;;;20.06;80.58;99828.59;5029333;28;20479;-40
2023/07/06 00:35:00;;;;;;;14.38;8.35;;;;;;;20.05;80.57;99829.53;5062682;28;20044;-39
2023/07/06 00:37:26;;;;;;;12.30;7.45;;;;;;;19.82;80.59;99794.25;5021101;28;20048;-41
2023/07/06 00:39:53;;;;;;;13.40;8.05;;;;;;;20.05;80.84;99840.09;5055680;28;20068;-41
2023/07/06 00:42:22;;;;;;;12.40;8.68;;;;;;;20.02;81.11;99842.97;5038303;28;20043;-40
2023/07/06 00:44:52;;;;;;;12.02;8.30;;;;;;;20.03;81.21;99846.47;5018925;28;20117;-40
2023/07/06 00:47:43;;;;;;;12.98;8.30;;;;;;;20.02;81.20;99848.25;5032036;28;20040;-42
2023/07/06 00:50:15;;;;;;;13.18;8.18;;;;;;;19.99;81.32;99852.91;5012823;28;20049;-41
2023/07/06 00:52:51;;;;;;;13.50;8.90;;;;;;;19.96;81.71;99848.69;5047327;28;20044;-41
2023/07/06 00:55:20;;;;;;;16.00;9.40;;;;;;;19.92;81.74;99843.72;5020630;28;20048;-41
2023/07/06 00:57:55;;;;;;;15.68;8.77;;;;;;;19.92;81.88;99851.66;5021751;28;20131;-40
2023/07/06 01:00:23;;;;;;;11.32;8.73;;;;;;;19.92;81.83;99857.78;5043836;28;20044;-40
2023/07/06 01:02:55;;;;;;;15.80;8.95;;;;;;;19.91;82.09;99850.81;5047932;28;20058;-39
2023/07/06 01:05:23;;;;;;;12.55;8.63;;;;;;;19.91;82.20;99852.59;5025045;28;20599;-40
2023/07/06 01:07:51;;;;;;;18.35;9.23;;;;;;;19.88;82.10;99843.97;5035667;28;20102;-40
2023/07/06 01:10:18;;;;;;;15.15;9.30;;;;;;;19.90;82.22;99854.38;5047024;28;20040;-39
2023/07/06 01:12:46;;;;;;;15.60;9.20;;;;;;;19.87;82.46;99847.53;5065843;28;20072;-39
2023/07/06 01:15:15;;;;;;;11.43;8.55;;;;;;;19.86;82.38;99848.50;5059207;28;20052;-39
2023/07/06 01:18:07;;;;;;;15.02;9.23;;;;;;;19.69;82.86;99821.56;5028977;28;20090;-40
2023/07/06 01:20:44;;;;;;;18.17;9.18;;;;;;;19.81;83.17;99850.59;5029260;28;20445;-40
2023/07/06 01:23:17;;;;;;;13.95;9.30;;;;;;;19.78;83.29;99849.97;5043476;28;20202;-39
2023/07/06 01:26:04;;;;;;;15.10;9.18;;;;;;;19.77;83.72;99846.50;5078374;28;20047;-40
2023/07/06 01:28:34;;;;;;;15.27;9.85;;;;;;;19.77;83.63;99837.72;5070895;28;20052;-39
2023/07/06 01:31:26;;;;;;;16.75;9.82;;;;;;;19.76;83.79;99838.69;5083463;28;20043;-40
2023/07/06 01:34:20;;;;;;;17.55;9.77;;;;;;;19.78;83.96;99839.44;5069044;28;20044;-40
2023/07/06 01:37:14;;;;;;;13.70;9.55;;;;;;;19.79;83.98;99838.44;5058171;28;20044;-40
2023/07/06 01:39:41;;;;;;;16.25;9.45;;;;;;;19.80;83.84;99840.16;5074662;28;20083;-40
2023/07/06 01:42:07;;;;;;;13.45;8.65;;;;;;;19.82;84.01;99849.66;5069200;28;20044;-40
2023/07/06 01:44:33;;;;;;;14.15;9.30;;;;;;;19.83;84.02;99851.34;5067209;28;20120;-40
2023/07/06 01:46:59;;;;;;;15.57;8.80;;;;;;;19.84;83.99;99845.09;5089333;28;20036;-40
2023/07/06 01:49:26;;;;;;;16.13;8.95;;;;;;;19.84;84.15;99844.25;5074681;28;20123;-40
2023/07/06 01:51:55;;;;;;;12.93;8.60;;;;;;;19.85;84.23;99848.59;5052924;28;20123;-39
2023/07/06 01:54:29;;;;;;;13.40;9.57;;;;;;;19.83;84.24;99843.44;5089678;28;20638;-40
2023/07/06 01:57:05;;;;;;;13.68;9.50;;;;;;;19.86;84.09;99851.13;5089129;28;20042;-40
2023/07/06 01:59:32;;;;;;;12.75;8.55;;;;;;;19.88;84.04;99849.25;5061533;28;20095;-41
2023/07/06 02:02:01;;;;;;;14.10;8.63;;;;;;;19.87;83.99;99852.81;5070367;28;20052;-39
2023/07/06 02:04:32;;;;;;;12.35;9.02;;;;;;;19.88;84.13;99853.66;5089012;28;20040;-41
2023/07/06 02:07:00;;;;;;;13.18;8.90;;;;;;;19.91;84.12;99855.22;5088855;28;20039;-40
2023/07/06 02:09:26;;;;;;;15.10;9.48;;;;;;;19.94;83.97;99860.31;5089856;28;20039;-40
2023/07/06 02:11:52;;;;;;;17.25;9.25;;;;;;;19.93;84.17;99845.41;5071744;28;20039;-40
2023/07/06 02:14:19;;;;;;;13.25;8.75;;;;;;;19.95;84.16;99854.91;5089907;28;20046;-40
2023/07/06 02:16:46;;;;;;;15.27;9.35;;;;;;;19.96;83.95;99861.88;5055255;28;20032;-39
2023/07/06 02:19:12;;;;;;;12.70;8.82;;;;;;;19.95;84.25;99857.53;5067806;28;20043;-39
2023/07/06 02:21:38;;;;;;;11.95;8.40;;;;;;;19.97;84.11;99853.00;5069562;28;20504;-40
2023/07/06 02:24:09;;;;;;;14.02;8.50;;;;;;;19.85;84.04;99833.59;5066337;28;20059;-40
2023/07/06 02:26:35;;;;;;;14.18;9.13;;;;;;;19.88;83.98;99836.03;5087338;28;20043;-41
2023/07/06 02:29:01;;;;;;;13.40;8.88;;;;;;;20.05;83.95;99861.22;5076336;28;20048;-41
2023/07/06 02:31:27;;;;;;;14.45;9.40;;;;;;;19.93;84.12;99841.00;5065296;28;20036;-41
2023/07/06 02:33:53;;;;;;;15.48;9.77;;;;;;;20.06;84.14;99856.78;5082714;28;20035;-40
2023/07/06 02:36:19;;;;;;;14.95;9.13;;;;;;;20.08;83.98;99862.81;5088304;28;20044;-41
2023/07/06 02:38:46;;;;;;;15.45;8.95;;;;;;;20.13;83.64;99860.69;5069958;28;20533;-39
2023/07/06 02:41:12;;;;;;;14.82;8.98;;;;;;;20.11;83.70;99866.06;5074455;28;20040;-39
2023/07/06 02:43:38;;;;;;;13.30;9.52;;;;;;;19.99;83.84;99837.94;5069207;28;20086;-44
2023/07/06 02:46:04;;;;;;;13.98;9.35;;;;;;;20.01;83.77;99845.72;5028464;28;20044;-39
2023/07/06 02:48:30;;;;;;;12.45;8.95;;;;;;;20.07;83.64;99848.78;5087337;28;20043;-40
2023/07/06 02:50:57;;;;;;;12.73;9.15;;;;;;;20.19;83.71;99863.75;5087354;28;20048;-40
2023/07/06 02:53:23;;;;;;;13.85;9.20;;;;;;;20.19;83.60;99865.53;5088141;28;20630;-40
2023/07/06 02:55:51;;;;;;;15.23;9.50;;;;;;;20.18;83.79;99858.56;5076305;28;20053;-39
2023/07/06 02:58:18;;;;;;;15.82;9.45;;;;;;;20.07;83.75;99842.66;5086734;28;20036;-40
2023/07/06 03:00:47;;;;;;;14.13;9.13;;;;;;;20.07;83.76;99845.28;5087470;28;20036;-40
2023/07/06 03:03:14;;;;;;;;;;;;;;;20.23;83.61;99872.28;5087009;28;20161;-41
2023/07/06 03:05:44;;;;;;;13.65;8.82;;;;;;;20.16;83.38;99861.31;5086438;28;19927;-40
2023/07/06 03:08:10;;;;;;;15.35;9.75;;;;;;;20.25;83.55;99873.84;5067221;28;20048;-40
2023/07/06 03:10:35;;;;;;;14.98;9.30;;;;;;;20.27;83.40;99865.84;5070054;28;20044;-40
2023/07/06 03:13:02;;;;;;;17.83;9.57;;;;;;;20.31;83.46;99867.31;5055340;28;20139;-41
2023/07/06 03:15:28;;;;;;;15.65;9.90;;;;;;;20.39;83.18;99870.28;5052283;28;20090;-40
2023/07/06 03:17:54;;;;;;;13.40;9.00;;;;;;;20.31;83.08;99854.13;5088498;28;20044;-39
2023/07/06 03:20:20;;;;;;;12.65;8.80;;;;;;;20.35;83.09;99854.75;5087041;28;20376;-41
2023/07/06 03:22:48;;;;;;;14.27;9.25;;;;;;;20.50;82.88;99878.28;5075335;28;20055;-42
2023/07/06 03:25:23;;;;;;;15.13;9.10;;;;;;;20.54;82.79;99884.19;5084992;28;20036;-41
2023/07/06 03:27:49;;;;;;;16.30;8.88;;;;;;;20.59;82.46;99879.41;5075448;28;20062;-40
2023/07/06 03:30:18;;;;;;;20.60;10.05;;;;;;;20.65;82.20;99886.88;5058768;28;20653;-39
2023/07/06 03:32:44;;;;;;;;;;;;;;;20.70;81.95;99880.31;5068620;28;20511;-40
2023/07/06 03:35:11;;;;;;;14.70;9.50;;;;;;;20.73;81.90;99891.63;5053139;28;19965;-39
2023/07/06 03:37:38;;;;;;;15.38;9.65;;;;;;;20.79;81.54;99884.06;5086255;28;20050;-41
2023/07/06 03:40:10;;;;;;;21.10;9.65;;;;;;;20.70;81.53;99875.03;5083842;28;20066;-41
2023/07/06 03:42:42;;;;;;;15.07;9.30;;;;;;;20.84;81.46;99887.22;5082761;28;20054;-41
2023/07/06 03:45:10;;;;;;;18.58;9.45;;;;;;;20.92;81.13;99882.22;5079488;28;20067;-40
2023/07/06 03:47:37;;;;;;;18.38;9.45;;;;;;;20.78;80.89;99844.56;5069224;28;20785;-39
2023/07/06 03:50:09;;;;;;;19.15;10.00;;;;;;;21.04;80.58;99880.47;5079359;28;20040;-40
2023/07/06 03:52:37;;;;;;;19.30;10.25;;;;;;;21.09;80.23;99870.41;5088552;28;20423;-40
2023/07/06 03:55:08;;;;;;;20.30;9.02;;;;;;;21.16;80.06;99873.44;5087679;28;20643;-40
2023/07/06 03:57:34;;;;;;;17.55;10.02;;;;;;;21.09;79.98;99858.00;5070367;28;20511;-40
2023/07/06 04:00:01;;;;;;;18.75;10.27;;;;;;;21.23;79.91;99867.59;5085618;28;20048;-40
2023/07/06 04:02:38;;;;;;;15.95;9.65;;;;;;;21.27;79.92;99874.34;5086404;28;20082;-40
2023/07/06 04:05:04;;;;;;;20.02;10.32;;;;;;;21.30;79.62;99870.63;5087631;28;20035;-40
2023/07/06 04:07:30;;;;;;;20.33;9.57;;;;;;;21.37;79.42;99866.53;5070098;28;20076;-40
2023/07/06 04:09:56;;;;;;;14.13;9.32;;;;;;;21.45;79.03;99874.75;5078789;28;20045;-42
2023/07/06 04:12:22;;;;;;;18.10;9.82;;;;;;;21.40;78.94;99855.75;5065850;28;20435;-40
2023/07/06 04:14:48;;;;;;;16.05;9.48;;;;;;;21.41;78.51;99839.72;5067881;28;20082;-40
2023/07/06 04:17:16;;;;;;;16.23;9.40;;;;;;;21.65;78.14;99860.84;5075216;28;20044;-40
2023/07/06 04:19:43;;;;;;;19.50;9.55;;;;;;;21.71;78.04;99876.25;5071357;28;20044;-41
2023/07/06 04:22:09;;;;;;;17.05;9.27;;;;;;;21.76;78.02;99863.50;5081190;28;20105;-41
2023/07/06 04:24:34;;;;;;;15.70;9.63;;;;;;;21.80;77.79;99870.22;5067476;28;20064;-41
2023/07/06 04:27:00;;;;;;;14.38;9.30;;;;;;;21.84;77.39;99870.81;5062352;28;20040;-40
2023/07/06 04:29:29;;;;;;;12.48;9.00;;;;;;;21.88;76.83;99873.13;5047827;28;20151;-40
2023/07/06 04:31:56;;;;;;;15.07;8.70;;;;;;;21.94;76.57;99874.47;5064107;28;20051;-41
2023/07/06 04:34:26;;;;;;;15.65;8.85;;;;;;;22.01;75.85;99878.34;5066317;28;20423;-40
2023/07/06 04:36:51;;;;;;;14.23;9.02;;;;;;;22.07;75.70;99877.84;5016662;28;20052;-41
2023/07/06 04:39:18;;;;;;;13.63;8.75;;;;;;;22.13;75.42;99882.69;5049395;28;20044;-40
2023/07/06 04:41:43;;;;;;;21.65;9.73;;;;;;;22.20;74.89;99883.00;5049329;28;20044;-41
2023/07/06 04:44:11;;;;;;;16.63;9.40;;;;;;;22.13;74.58;99868.59;5067834;28;20036;-40
2023/07/06 04:46:39;;;;;;;12.15;8.57;;;;;;;22.34;74.47;99883.63;5057545;28;20500;-40
2023/07/06 04:49:05;;;;;;;17.52;9.50;;;;;;;22.46;74.32;99880.94;5031253;28;20036;-40
2023/07/06 04:51:35;;;;;;;15.10;8.80;;;;;;;22.57;73.91;99881.75;5047944;28;20045;-40
2023/07/06 04:54:02;;;;;;;13.00;8.10;;;;;;;22.42;73.57;99845.91;5049532;28;20118;-40
2023/07/06 04:56:29;;;;;;;13.85;8.13;;;;;;;22.70;72.92;99885.13;5064932;28;20041;-43
2023/07/06 04:58:56;;;;;;;10.77;7.07;;;;;;;22.75;72.69;99887.44;5065178;28;20047;-45
2023/07/06 05:01:24;;;;;;;10.90;7.70;;;;;;;22.80;72.31;99879.94;5029868;28;20063;-41
2023/07/06 05:03:52;;;;;;;12.02;7.88;;;;;;;22.71;72.13;99854.19;5032441;28;20036;-41
2023/07/06 05:06:19;;;;;;;12.98;8.52;;;;;;;22.99;71.91;99880.09;5048871;28;20077;-40
2023/07/06 05:08:46;;;;;;;12.13;7.57;;;;;;;23.11;71.76;99878.25;5051384;28;20037;-40
2023/07/06 05:11:12;;;;;;;11.88;8.18;;;;;;;23.21;71.68;99876.50;5029408;28;20051;-40
2023/07/06 05:13:38;;;;;;;10.60;7.35;;;;;;;23.26;71.35;99871.66;5032579;28;20033;-40
2023/07/06 05:16:04;;;;;;;14.18;9.23;;;;;;;23.28;71.14;99856.47;5051292;28;20040;-40
2023/07/06 05:18:30;;;;;;;12.25;8.18;;;;;;;23.50;70.76;99880.22;5036520;28;20040;-40
2023/07/06 05:20:57;;;;;;;12.13;8.13;;;;;;;23.45;70.52;99861.19;5036156;28;20047;-40
2023/07/06 05:23:28;;;;;;;13.23;8.52;;;;;;;23.72;70.15;99878.41;5073006;28;20063;-40
2023/07/06 05:25:55;;;;;;;13.07;7.47;;;;;;;23.81;69.54;99878.50;5051474;28;20106;-40
2023/07/06 05:28:22;;;;;;;15.75;8.90;;;;;;;23.89;69.27;99875.16;5051938;28;20424;-41
2023/07/06 05:30:48;;;;;;;11.32;8.10;;;;;;;23.94;68.48;99876.44;5044909;28;20424;-40
2023/07/06 05:33:14;;;;;;;15.80;8.27;;;;;;;24.08;68.15;99876.06;5052327;28;20127;-40
2023/07/06 05:35:41;;;;;;;11.82;8.23;;;;;;;24.17;67.42;99877.13;5053043;28;20568;-39
2023/07/06 05:38:10;;;;;;;12.05;8.38;;;;;;;24.31;67.25;99874.09;5070563;28;20049;-39
2023/07/06 05:40:38;;;;;;;14.65;8.65;;;;;;;24.49;66.60;99871.63;5052482;28;20535;-39
2023/07/06 05:43:04;;;;;;;10.85;8.32;;;;;;;24.46;65.89;99858.59;5033777;28;20045;-40
2023/07/06 05:45:30;;;;;;;15.55;8.52;;;;;;;24.70;65.52;99877.69;5032894;28;20037;-40
2023/07/06 05:47:56;;;;;;;13.82;8.27;;;;;;;24.84;64.95;99869.31;5034429;28;20421;-40
2023/07/06 05:50:23;;;;;;;15.10;9.30;;;;;;;24.89;64.02;99856.47;5070797;28;20207;-40
2023/07/06 05:52:50;;;;;;;14.13;8.47;;;;;;;24.83;62.69;99821.56;5069828;28;20428;-42
2023/07/06 05:55:16;;;;;;;12.57;8.43;;;;;;;25.13;62.12;99857.84;5052541;28;20283;-41
2023/07/06 05:57:43;;;;;;;14.70;8.85;;;;;;;25.15;61.51;99840.78;5070119;28;20033;-40
2023/07/06 06:00:10;;;;;;;13.23;7.93;;;;;;;25.37;61.15;99857.41;5067203;28;20063;-42
2023/07/06 06:02:37;;;;;;;13.27;7.50;;;;;;;25.45;61.12;99850.38;5051813;28;20193;-40
2023/07/06 06:05:04;;;;;;;10.90;7.75;;;;;;;25.62;60.92;99848.84;5052465;28;20047;-41
2023/07/06 06:07:33;;;;;;;11.45;7.20;;;;;;;25.85;60.46;99847.53;5038588;28;20056;-41
2023/07/06 06:10:03;;;;;;;12.13;6.68;;;;;;;26.01;59.55;99853.03;5062442;28;20040;-41
2023/07/06 06:12:31;;;;;;;11.75;6.82;;;;;;;25.96;57.41;99827.84;5046366;28;20045;-40
2023/07/06 06:14:57;;;;;;;8.57;6.30;;;;;;;26.21;56.32;99844.97;5033802;28;20516;-41
2023/07/06 06:17:26;;;;;;;10.48;7.00;;;;;;;26.15;55.66;99841.91;5015373;28;20053;-41
2023/07/06 06:19:52;;;;;;;11.05;6.22;;;;;;;25.89;54.66;99821.41;5051585;28;20044;-41
2023/07/06 06:22:19;;;;;;;11.82;6.35;;;;;;;26.09;54.09;99839.84;5067218;28;20037;-40
2023/07/06 06:24:45;;;;;;;10.93;6.47;;;;;;;26.38;53.72;99842.34;5069221;28;20052;-40
2023/07/06 06:27:14;;;;;;;11.45;6.57;;;;;;;26.66;53.38;99840.50;5049862;28;20047;-41
2023/07/06 06:29:42;;;;;;;13.57;9.38;;;;;;;27.03;52.79;99845.72;5035139;28;20035;-41
2023/07/06 06:32:09;;;;;;;8.30;5.75;;;;;;;27.14;50.44;99839.31;5068495;28;20063;-40
2023/07/06 06:34:36;;;;;;;11.02;5.38;;;;;;;27.03;49.27;99824.38;5051120;28;20055;-40
2023/07/06 06:37:04;;;;;;;10.07;6.07;;;;;;;27.22;48.96;99840.19;5068722;28;20579;-40
2023/07/06 06:39:31;;;;;;;9.85;5.93;;;;;;;27.47;48.15;99829.72;5041606;28;20157;-41
2023/07/06 06:41:58;;;;;;;10.52;6.40;;;;;;;27.79;47.53;99833.41;5068474;28;20078;-40
2023/07/06 06:44:25;;;;;;;9.57;6.13;;;;;;;28.46;46.24;99841.59;5051439;28;20543;-41
2023/07/06 06:46:51;;;;;;;10.27;6.18;;;;;;;29.09;44.73;99831.19;5063182;28;20040;-40
2023/07/06 06:49:16;;;;;;;8.98;5.63;;;;;;;29.68;43.08;99834.44;5014930;28;20441;-40
2023/07/06 06:51:42;;;;;;;10.90;5.93;;;;;;;30.62;41.72;99842.50;5066598;28;20052;-40
2023/07/06 06:54:08;;;;;;;9.95;6.13;;;;;;;31.26;40.23;99848.41;5048266;28;20055;-40
2023/07/06 06:56:35;;;;;;;8.45;6.20;;;;;;;32.10;38.51;99841.84;5061351;28;20041;-40
2023/07/06 06:59:01;;;;;;;9.90;5.95;;;;;;;32.37;38.08;99852.78;5039743;28;20384;-41
2023/07/06 07:01:27;;;;;;;9.13;6.13;;;;;;;31.48;38.56;99852.94;5059727;28;20920;-41
2023/07/06 07:03:53;;;;;;;10.50;6.45;;;;;;;31.13;39.19;99855.25;5060961;28;20105;-40
2023/07/06 07:06:22;;;;;;;9.52;6.20;;;;;;;32.40;37.14;99854.25;5037702;28;20120;-43
2023/07/06 07:08:51;;;;;;;10.93;5.88;;;;;;;33.63;35.46;99852.19;5058512;28;20028;-42
2023/07/06 07:11:21;;;;;;;9.63;6.10;;;;;;;35.22;33.46;99849.97;5016895;28;20113;-41
2023/07/06 07:13:48;;;;;;;12.77;5.82;;;;;;;36.40;31.89;99857.03;5040084;28;20037;-48
2023/07/06 07:16:15;;;;;;;8.93;6.13;;;;;;;36.55;30.24;99862.16;5056953;28;20524;-42
2023/07/06 07:18:43;;;;;;;12.25;6.07;;;;;;;35.46;30.57;99858.47;5039892;28;20107;-43
2023/07/06 07:21:10;;;;;;;14.25;7.25;;;;;;;36.15;29.94;99856.09;5058500;28;20063;-47
2023/07/06 07:23:41;;;;;;;9.40;6.38;;;;;;;37.94;28.40;99868.22;5053903;28;20413;-43
2023/07/06 07:26:08;;;;;;;10.25;6.28;;;;;;;37.75;28.00;99875.50;5072826;28;20431;-43
2023/07/06 07:28:34;;;;;;;8.63;6.25;;;;;;;37.46;27.51;99861.78;5078231;28;20100;-42
2023/07/06 07:31:01;;;;;;;7.57;6.10;;;;;;;37.14;27.72;99869.16;5082527;28;20439;-45
2023/07/06 07:33:28;;;;;;;12.48;6.28;;;;;;;37.85;26.80;99868.72;5074615;28;20046;-43
2023/07/06 07:35:57;;;;;;;11.45;6.40;;;;;;;38.26;26.00;99874.38;5069570;28;20040;-44
2023/07/06 07:38:24;;;;;;;10.27;6.47;;;;;;;39.35;24.86;99879.56;5082905;28;20584;-44
2023/07/06 07:40:57;;;;;;;7.90;6.25;;;;;;;39.55;23.86;99860.16;5082365;28;20040;-42
2023/07/06 07:43:25;;;;;;;9.30;6.78;;;;;;;40.27;23.45;99879.75;5077995;28;20051;-44
2023/07/06 07:45:54;;;;;;;10.23;6.80;;;;;;;39.82;23.89;99865.13;5075519;28;20044;-42
2023/07/06 07:48:22;;;;;;;12.73;6.38;;;;;;;40.14;23.91;99878.13;5064056;28;20032;-48
2023/07/06 07:50:48;;;;;;;;;;;;;;;41.14;23.37;99894.00;5080876;28;20044;-46
2023/07/06 07:53:14;;;;;;;13.53;7.30;;;;;;;40.48;23.36;99883.72;5071247;28;20444;-46
2023/07/06 07:55:41;;;;;;;9.77;7.03;;;;;;;40.24;23.59;99873.97;5078823;28;20177;-42
2023/07/06 07:58:08;;;;;;;8.55;6.85;;;;;;;40.99;23.06;99866.41;5080353;28;20040;-44
2023/07/06 08:00:34;;;;;;;13.40;7.37;;;;;;;41.77;22.26;99895.59;5071908;28;20630;-41
2023/07/06 08:03:04;;;;;;;13.85;6.90;;;;;;;41.36;22.10;99880.44;5075770;28;20067;-41
2023/07/06 08:05:31;;;;;;;11.18;6.53;;;;;;;41.73;22.17;99887.06;5069942;28;20036;-42
2023/07/06 08:07:57;;;;;;;9.02;6.93;;;;;;;41.20;22.10;99879.38;5079025;28;20032;-42
2023/07/06 08:10:24;;;;;;;15.55;7.28;;;;;;;41.66;21.69;99877.41;5065637;28;20112;-43
2023/07/06 08:12:50;;;;;;;9.43;7.05;;;;;;;41.82;21.42;99880.06;5066554;28;20088;-42
2023/07/06 08:15:15;;;;;;;8.90;6.80;;;;;;;42.34;20.67;99887.13;5072277;28;20040;-42
2023/07/06 08:17:42;;;;;;;10.48;7.35;;;;;;;41.55;21.46;99875.59;5085449;28;20051;-45
2023/07/06 08:20:11;;;;;;;9.35;6.93;;;;;;;41.85;21.09;99886.97;5082277;28;20093;-44
2023/07/06 08:22:39;;;;;;;10.10;6.90;;;;;;;40.91;21.47;99885.94;5075167;28;20086;-43
2023/07/06 08:25:08;;;;;;;8.98;6.30;;;;;;;41.02;21.57;99864.03;5063707;28;20052;-42
2023/07/06 08:27:35;;;;;;;10.52;6.90;;;;;;;41.10;21.52;99878.38;5065832;28;20131;-41
2023/07/06 08:30:01;;;;;;;7.70;5.95;;;;;;;40.50;22.07;99865.22;5066345;28;20047;-41
2023/07/06 08:32:30;;;;;;;10.23;6.78;;;;;;;40.53;22.08;99881.09;5041195;28;20508;-40
2023/07/06 08:34:56;;;;;;;7.63;6.32;;;;;;;39.27;23.03;99868.13;5038829;28;20066;-41
2023/07/06 08:37:22;;;;;;;7.03;6.30;;;;;;;38.73;23.46;99867.28;5061662;28;20097;-42
2023/07/06 08:39:48;;;;;;;11.13;6.47;;;;;;;40.11;22.88;99877.75;5066626;28;20036;-42
2023/07/06 08:42:18;;;;;;;12.18;6.82;;;;;;;40.31;22.31;99874.63;5048835;28;20680;-43
2023/07/06 08:44:53;;;;;;;10.32;6.47;;;;;;;40.35;22.08;99873.94;5047423;28;20427;-42
2023/07/06 08:47:19;;;;;;;11.73;6.68;;;;;;;39.77;22.47;99868.56;5044261;28;20056;-43
2023/07/06 08:49:45;;;;;;;10.32;7.47;;;;;;;39.51;22.79;99866.31;5014577;28;20091;-42
2023/07/06 08:52:12;;;;;;;7.82;6.53;;;;;;;39.64;22.88;99864.16;5019132;28;20048;-42
2023/07/06 08:54:39;;;;;;;8.68;6.97;;;;;;;39.35;22.90;99860.50;5065274;28;20198;-40
2023/07/06 08:57:22;;;;;;;12.15;6.70;;;;;;;37.88;24.45;99860.97;5059779;28;20089;-38
2023/07/06 08:59:49;;;;;;;8.05;7.13;;;;;;;38.19;24.13;99861.91;5045350;28;20040;-39
2023/07/06 09:02:20;;;;;;;12.25;7.00;;;;;;;38.42;24.01;99864.75;5045411;28;20127;-41
2023/07/06 09:04:48;;;;;;;8.85;6.75;;;;;;;38.46;24.23;99860.56;5034905;28;20606;-40
2023/07/06 09:07:19;;;;;;;9.25;7.00;;;;;;;39.05;23.40;99862.41;5026464;28;20552;-41
2023/07/06 09:09:47;;;;;;;11.88;7.35;;;;;;;39.15;23.47;99854.50;5052348;28;20463;-48
2023/07/06 09:12:33;;;;;;;7.32;6.55;;;;;;;39.62;22.69;99866.28;5036000;28;20477;-40
2023/07/06 09:15:01;;;;;;;10.40;6.70;;;;;;;39.71;21.92;99847.72;5068715;28;20063;-43
2023/07/06 09:17:27;;;;;;;10.18;7.03;;;;;;;39.86;22.14;99850.78;5036131;28;20591;-40
2023/07/06 09:19:56;;;;;;;10.60;6.88;;;;;;;39.80;21.72;99836.25;5070255;28;20097;-41
2023/07/06 09:22:23;;;;;;;8.85;6.38;;;;;;;39.09;23.17;99854.63;5070804;28;20143;-41
2023/07/06 09:24:50;;;;;;;9.48;6.63;;;;;;;38.76;23.81;99839.63;5063995;28;20064;-41
2023/07/06 09:27:23;;;;;;;13.85;6.55;;;;;;;38.56;24.23;99845.34;5063083;28;20126;-42
2023/07/06 09:30:07;;;;;;;9.73;6.43;;;;;;;38.58;23.45;99847.81;5043934;28;20130;-42
2023/07/06 09:32:34;;;;;;;9.13;6.47;;;;;;;38.68;23.09;99839.94;5070574;28;20127;-42
2023/07/06 09:35:04;;;;;;;14.75;6.60;;;;;;;39.76;22.52;99845.09;5068979;28;20043;-41
2023/07/06 09:37:31;;;;;;;6.85;6.13;;;;;;;40.11;21.89;99843.16;5049583;28;20108;-43
2023/07/06 09:40:00;;;;;;;6.78;6.05;;;;;;;40.46;21.58;99829.44;5051159;28;20578;-41
2023/07/06 09:42:28;;;;;;;10.27;6.30;;;;;;;41.00;20.93;99836.16;5051506;28;20048;-40
2023/07/06 09:44:53;;;;;;;;;;;;;;;40.58;21.11;99837.56;5063721;28;20041;-40
2023/07/06 09:47:20;;;;;;;11.90;7.00;;;;;;;40.68;21.29;99813.25;5036874;28;19923;-41
2023/07/06 09:49:55;;;;;;;11.55;6.90;;;;;;;40.86;21.19;99845.75;5031428;28;20032;-42
2023/07/06 09:52:22;;;;;;;9.27;7.25;;;;;;;40.88;21.44;99827.22;5005292;28;20055;-42
2023/07/06 09:54:56;;;;;;;10.85;6.75;;;;;;;41.04;21.51;99839.25;5037513;28;20076;-41
2023/07/06 09:57:25;;;;;;;10.18;7.30;;;;;;;41.15;21.46;99842.97;5023181;28;20164;-40
2023/07/06 09:59:52;;;;;;;8.80;7.32;;;;;;;42.04;21.25;99839.16;5042811;28;20123;-50
2023/07/06 10:02:31;;;;;;;10.70;7.25;;;;;;;42.30;20.95;99840.31;5050824;28;20424;-46
2023/07/06 10:05:21;;;;;;;8.05;6.95;;;;;;;43.60;19.47;99838.25;5051588;28;20076;-45
2023/07/06 10:07:54;;;;;;;10.52;8.02;;;;;;;43.79;19.01;99839.44;5022247;28;20041;-48
2023/07/06 10:10:34;;;;;;;8.82;7.60;;;;;;;43.45;18.85;99842.50;5051002;28;20033;-44
2023/07/06 10:13:04;;;;;;;11.10;7.55;;;;;;;43.53;18.80;99846.72;5031766;28;20048;-43
2023/07/06 10:15:43;;;;;;;11.43;7.18;;;;;;;40.17;21.65;99825.03;5067473;28;20040;-49
2023/07/06 10:18:24;;;;;;;12.07;8.07;;;;;;;39.05;23.27;99812.66;5018311;28;20076;-48
2023/07/06 10:20:54;;;;;;;8.60;7.70;;;;;;;38.80;24.00;99812.78;5023667;28;20036;-48
2023/07/06 10:23:32;;;;;;;11.82;7.55;;;;;;;40.86;22.23;99809.47;5062705;28;20060;-44
2023/07/06 10:26:13;;;;;;;8.52;7.68;;;;;;;42.72;20.51;99815.88;5030846;28;20045;-45
2023/07/06 10:28:43;;;;;;;8.52;7.55;;;;;;;42.34;20.77;99835.16;5051125;28;20033;-46
2023/07/06 10:31:16;;;;;;;8.90;7.43;;;;;;;40.37;22.75;99819.16;5068721;28;20431;-44
2023/07/06 10:33:52;;;;;;;11.20;7.10;;;;;;;40.48;22.88;99819.13;5069348;28;20108;-46
2023/07/06 10:36:18;;;;;;;9.88;7.57;;;;;;;40.75;22.58;99822.09;5050142;28;20151;-50
2023/07/06 10:38:48;;;;;;;9.05;6.97;;;;;;;39.46;22.83;99822.63;5040214;28;20040;-45
2023/07/06 10:41:14;;;;;;;10.57;7.20;;;;;;;39.15;22.96;99819.13;5069390;28;20040;-49
2023/07/06 10:43:42;;;;;;;8.30;6.50;;;;;;;39.31;22.97;99823.88;5066840;28;20508;-49
2023/07/06 10:46:35;;;;;;;10.13;8.38;;;;;;;39.54;23.13;99814.09;5056749;28;20048;-50
2023/07/06 10:49:15;;;;;;;8.57;7.15;;;;;;;40.08;22.77;99807.41;5058602;28;20086;-49
2023/07/06 10:51:49;;;;;;;8.00;7.00;;;;;;;41.79;20.46;99806.00;5051468;28;20574;-51
2023/07/06 10:54:18;;;;;;;7.47;6.68;;;;;;;41.96;20.62;99811.44;5050981;28;20178;-49
2023/07/06 10:56:48;;;;;;;10.63;6.85;;;;;;;41.27;21.59;99813.72;5068269;28;20047;-52
2023/07/06 10:59:25;;;;;;;9.25;7.30;;;;;;;40.98;20.88;99799.31;5068675;28;20036;-49
2023/07/06 11:02:00;;;;;;;;;;;;;;;40.93;20.04;99808.22;5068561;28;20037;-50
2023/07/06 11:04:47;;;;;;;9.10;8.00;;;;;;;40.55;19.14;99798.00;5050945;28;19920;-49
2023/07/06 11:07:41;;;;;;;9.68;7.88;;;;;;;40.88;18.99;99794.50;5067567;28;20078;-53
2023/07/06 11:10:13;;;;;;;8.75;7.50;;;;;;;42.02;18.35;99794.88;5068514;28;20040;-51
2023/07/06 11:12:54;;;;;;;8.18;7.30;;;;;;;42.17;18.89;99791.50;5068558;28;20050;-48
2023/07/06 11:15:39;;;;;;;8.95;8.02;;;;;;;42.40;18.81;99793.94;5049439;28;20044;-49
2023/07/06 11:18:14;;;;;;;13.70;6.82;;;;;;;43.16;18.70;99783.72;5050461;28;20036;-49
2023/07/06 11:20:42;;;;;;;9.10;7.90;;;;;;;44.31;18.33;99790.91;5068244;28;20074;-52
2023/07/06 11:23:14;;;;;;;8.10;7.38;;;;;;;45.20;17.42;99797.03;5067912;28;20060;-49
2023/07/06 11:25:39;;;;;;;12.00;7.82;;;;;;;44.46;17.29;99787.38;5067137;28;20123;-49
2023/07/06 11:28:12;;;;;;;10.48;8.80;;;;;;;44.21;16.76;99782.63;5068344;28;20356;-51
2023/07/06 11:30:55;;;;;;;9.02;8.13;;;;;;;43.79;16.76;99785.47;5032430;28;20040;-49
2023/07/06 11:34:03;;;;;;;9.73;8.73;;;;;;;44.02;16.63;99788.91;5033812;28;20037;-53
2023/07/06 11:36:39;;;;;;;12.88;8.15;;;;;;;43.03;16.73;99784.97;5020125;28;20044;-52
2023/07/06 11:39:13;;;;;;;8.43;7.50;;;;;;;42.73;17.73;99771.03;5034019;28;20123;-48